createdAt,value
2018-08-31T00:00:47.672Z,101161.81
2018-08-31T00:05:56.915Z,101155.61
2018-08-31T00:11:23.984Z,101158.61
2018-08-31T00:16:21.736Z,101160.13
2018-08-31T00:21:19.124Z,101153.31
2018-08-31T00:26:27.847Z,101156.49
2018-08-31T00:33:44.139Z,101154.70
2018-08-31T00:38:56.443Z,101147.36
2018-08-31T00:45:03.875Z,101150.94
2018-08-31T00:50:04.681Z,101151.27
2018-08-31T00:55:02.126Z,101149.80
2018-08-31T00:59:59.534Z,101148.24
2018-08-31T01:04:56.919Z,101148.97
2018-08-31T01:09:54.962Z,101153.77
2018-08-31T01:14:52.995Z,101145.63
2018-08-31T01:19:53.267Z,101150.95
2018-08-31T01:24:50.807Z,101150.48
2018-08-31T01:29:48.183Z,101156.09
2018-08-31T01:34:45.562Z,101152.59
2018-08-31T01:39:42.978Z,101152.56
2018-08-31T01:44:40.643Z,101155.97
2018-08-31T01:49:41.929Z,101156.95
2018-08-31T01:54:39.346Z,101155.70
2018-08-31T01:59:36.735Z,101158.42
2018-08-31T02:04:34.922Z,101160.69
2018-08-31T02:09:32.300Z,101164.62
2018-08-31T02:14:29.671Z,101164.98
2018-08-31T02:19:31.777Z,101170.29
2018-08-31T02:24:29.414Z,101172.64
2018-08-31T02:29:26.824Z,101173.22
2018-08-31T02:34:25.103Z,101174.27
2018-08-31T02:39:22.552Z,101174.45
2018-08-31T02:44:19.887Z,101172.69
2018-08-31T02:49:26.245Z,101169.99
2018-08-31T02:54:23.763Z,101164.77
2018-08-31T02:59:21.131Z,101168.27
2018-08-31T03:04:18.827Z,101164.81
2018-08-31T03:09:16.195Z,101166.42
2018-08-31T03:14:13.587Z,101158.61
2018-08-31T03:19:12.547Z,101168.80
2018-08-31T03:24:10.022Z,101169.36
2018-08-31T03:29:07.767Z,101166.93
2018-08-31T03:34:05.778Z,101171.67
2018-08-31T03:39:04.155Z,101164.70
2018-08-31T03:44:01.530Z,101172.05
2018-08-31T03:48:59.011Z,101167.48
2018-08-31T03:53:56.495Z,101171.91
2018-08-31T03:58:53.894Z,101169.97
2018-08-31T04:03:52.279Z,101164.56
2018-08-31T04:08:49.687Z,101174.81
2018-08-31T04:13:47.071Z,101175.72
2018-08-31T04:18:44.527Z,101175.11
2018-08-31T04:23:41.963Z,101176.25
2018-08-31T04:28:39.362Z,101178.36
2018-08-31T04:33:36.778Z,101177.94
2018-08-31T04:38:34.174Z,101174.23
2018-08-31T04:43:31.572Z,101176.25
2018-08-31T04:48:29.947Z,101182.31
2018-08-31T04:53:27.382Z,101176.41
2018-08-31T04:58:24.790Z,101175.64
2018-08-31T05:03:22.786Z,101187.41
2018-08-31T05:08:21.036Z,101186.07
2018-08-31T05:13:19.538Z,101182.78
2018-08-31T05:18:17.675Z,101187.94
2018-08-31T05:23:20.031Z,101184.55
2018-08-31T05:28:17.611Z,101183.38
2018-08-31T05:33:15.031Z,101181.67
2018-08-31T05:38:12.459Z,101196.36
2018-08-31T05:43:09.837Z,101194.22
2018-08-31T05:48:07.233Z,101205.13
2018-08-31T05:53:04.650Z,101205.75
2018-08-31T05:58:02.045Z,101207.64
2018-08-31T06:02:59.455Z,101215.91
2018-08-31T06:07:56.901Z,101215.81
2018-08-31T06:12:55.071Z,101214.31
2018-08-31T06:17:53.106Z,101214.95
2018-08-31T06:22:50.540Z,101217.36
2018-08-31T06:27:47.963Z,101223.72
2018-08-31T06:32:45.988Z,101221.78
2018-08-31T06:37:43.911Z,101227.99
2018-08-31T06:42:41.317Z,101224.72
2018-08-31T06:47:38.819Z,101221.34
2018-08-31T06:52:36.274Z,101227.17
2018-08-31T06:57:33.700Z,101231.64
2018-08-31T07:02:31.107Z,101226.35
2018-08-31T07:07:29.168Z,101225.05
2018-08-31T07:12:26.856Z,101234.33
2018-08-31T07:17:25.146Z,101240.71
2018-08-31T07:22:22.547Z,101242.48
2018-08-31T07:27:20.278Z,101246.24
2018-08-31T07:32:17.830Z,101255.53
2018-08-31T07:37:15.469Z,101262.34
2018-08-31T07:42:12.894Z,101260.27
2018-08-31T07:47:10.571Z,101265.11
2018-08-31T07:52:07.978Z,101259.31
2018-08-31T07:57:05.891Z,101267.73
2018-08-31T08:02:03.380Z,101266.94
2018-08-31T08:07:00.843Z,101263.06
2018-08-31T08:11:58.459Z,101277.23
2018-08-31T08:16:55.860Z,101278.73
2018-08-31T08:21:53.324Z,101280.48
2018-08-31T08:26:50.799Z,101285.46
2018-08-31T08:31:48.200Z,101290.94
2018-08-31T08:36:45.847Z,101291.22
2018-08-31T08:41:46.193Z,101287.00
2018-08-31T08:46:47.338Z,101287.52
2018-08-31T08:51:52.951Z,101290.65
2018-08-31T08:56:54.008Z,101291.70
2018-08-31T09:01:51.519Z,101283.30
2018-08-31T09:06:51.158Z,101287.57
2018-08-31T09:11:50.735Z,101279.25
2018-08-31T09:16:48.313Z,101284.12
2018-08-31T09:21:47.163Z,101283.22
2018-08-31T09:26:44.922Z,101281.20
2018-08-31T09:31:44.919Z,101284.14
2018-08-31T09:36:45.103Z,101277.33
2018-08-31T09:41:42.487Z,101270.42
2018-08-31T09:46:39.896Z,101263.15
2018-08-31T09:51:37.575Z,101258.95
2018-08-31T09:56:35.995Z,101258.74
2018-08-31T10:01:34.678Z,101252.98
2018-08-31T10:06:33.129Z,101246.34
2018-08-31T10:11:30.544Z,101246.16
2018-08-31T10:16:27.947Z,101250.11
2018-08-31T10:21:25.463Z,101243.14
2018-08-31T10:26:23.869Z,101248.59
2018-08-31T10:31:21.355Z,101249.95
2018-08-31T10:36:18.877Z,101246.67
2018-08-31T10:41:16.278Z,101244.30
2018-08-31T10:46:13.689Z,101236.80
2018-08-31T10:51:11.132Z,101235.09
2018-08-31T10:56:11.547Z,101229.91
2018-08-31T11:01:14.597Z,101228.39
2018-08-31T11:06:17.506Z,101227.56
2018-08-31T11:11:17.784Z,101228.28
2018-08-31T11:16:16.183Z,101224.47
2018-08-31T11:21:13.639Z,101229.77
2018-08-31T11:26:11.051Z,101219.66
2018-08-31T11:31:08.459Z,101225.27
2018-08-31T11:36:05.906Z,101228.74
2018-08-31T11:41:03.321Z,101230.47
2018-08-31T11:46:00.738Z,101218.73
2018-08-31T11:50:59.188Z,101217.98
2018-08-31T11:55:57.467Z,101216.19
2018-08-31T12:00:54.982Z,101206.45
2018-08-31T12:05:52.467Z,101223.44
2018-08-31T12:10:50.374Z,101207.60
2018-08-31T12:15:47.871Z,101221.69
2018-08-31T12:20:47.299Z,101213.23
2018-08-31T12:25:45.063Z,101213.23
2018-08-31T12:30:42.524Z,101199.91
2018-08-31T12:35:40.719Z,101199.09
2018-08-31T12:40:39.246Z,101199.05
2018-08-31T12:45:37.388Z,101202.48
2018-08-31T12:50:35.443Z,101206.80
2018-08-31T12:55:33.826Z,101204.61
2018-08-31T13:00:32.587Z,101197.22
2018-08-31T13:05:30.293Z,101197.55
2018-08-31T13:10:27.728Z,101184.72
2018-08-31T13:15:25.190Z,101181.33
2018-08-31T13:20:23.619Z,101183.59
2018-08-31T13:25:21.050Z,101184.93
2018-08-31T13:30:18.545Z,101175.50
2018-08-31T13:35:15.960Z,101166.30
2018-08-31T13:40:13.363Z,101174.84
2018-08-31T13:45:10.782Z,101173.58
2018-08-31T13:50:09.048Z,101171.50
2018-08-31T13:55:06.636Z,101168.10
2018-08-31T14:00:04.481Z,101166.93
2018-08-31T14:05:01.963Z,101163.59
2018-08-31T14:09:59.408Z,101165.69
2018-08-31T14:14:57.155Z,101171.71
2018-08-31T14:19:55.752Z,101167.41
2018-08-31T14:24:53.266Z,101168.98
2018-08-31T14:29:51.629Z,101162.31
2018-08-31T14:34:49.996Z,101161.63
2018-08-31T14:39:47.696Z,101161.48
2018-08-31T14:44:45.122Z,101157.30
2018-08-31T14:49:44.485Z,101153.48
2018-08-31T14:54:41.991Z,101149.19
2018-08-31T14:59:39.410Z,101157.81
2018-08-31T15:04:36.833Z,101156.09
2018-08-31T15:09:34.227Z,101160.09
2018-08-31T15:14:31.656Z,101152.48
2018-08-31T15:19:33.513Z,101150.12
2018-08-31T15:24:31.013Z,101156.71
2018-08-31T15:29:28.438Z,101154.88
2018-08-31T15:34:25.847Z,101141.58
2018-08-31T15:39:23.348Z,101150.97
2018-08-31T15:44:20.850Z,101144.70
2018-08-31T15:49:25.362Z,101143.10
2018-08-31T15:54:22.904Z,101151.96
2018-08-31T15:59:20.316Z,101154.81
2018-08-31T16:04:17.752Z,101155.46
2018-08-31T16:09:15.181Z,101157.58
2018-08-31T16:14:12.594Z,101161.12
2018-08-31T16:19:10.865Z,101156.30
2018-08-31T16:24:08.283Z,101164.30
2018-08-31T16:29:12.224Z,101159.05
2018-08-31T16:34:09.775Z,101154.15
2018-08-31T16:39:08.152Z,101156.38
2018-08-31T16:44:06.165Z,101151.55
2018-08-31T16:49:10.083Z,101165.81
2018-08-31T16:54:07.507Z,101168.83
2018-08-31T16:59:05.252Z,101163.56
2018-08-31T17:04:02.720Z,101168.36
2018-08-31T17:09:00.144Z,101172.56
2018-08-31T17:13:57.574Z,101168.31
2018-08-31T17:18:55.439Z,101177.23
2018-08-31T17:23:52.901Z,101183.73
2018-08-31T17:28:55.972Z,101185.47
2018-08-31T17:33:59.051Z,101177.54
2018-08-31T17:38:56.458Z,101185.75
2018-08-31T17:43:53.887Z,101199.30
2018-08-31T17:48:52.399Z,101213.17
2018-08-31T17:53:49.822Z,101215.12
2018-08-31T17:58:50.536Z,101214.98
2018-08-31T18:03:55.201Z,101224.17
2018-08-31T18:08:59.830Z,101222.52
2018-08-31T18:13:59.894Z,101224.14
2018-08-31T18:19:02.759Z,101231.62
2018-08-31T18:24:03.061Z,101234.69
2018-08-31T18:29:01.715Z,101235.31
2018-08-31T18:34:00.109Z,101239.56
2018-08-31T18:38:58.187Z,101248.34
2018-08-31T18:43:55.599Z,101256.75
2018-08-31T18:48:53.011Z,101262.31
2018-08-31T18:53:50.447Z,101259.59
2018-08-31T18:58:48.668Z,101266.61
2018-08-31T19:03:47.006Z,101274.05
2018-08-31T19:08:45.133Z,101280.65
2018-08-31T19:13:43.332Z,101283.02
2018-08-31T19:18:40.822Z,101282.97
2018-08-31T19:23:38.947Z,101289.33
2018-08-31T19:28:37.580Z,101293.20
2018-08-31T19:33:35.706Z,101285.51
2018-08-31T19:38:33.640Z,101288.95
2018-08-31T19:43:31.969Z,101300.88
2018-08-31T19:48:30.423Z,101298.61
2018-08-31T19:53:28.629Z,101303.34
2018-08-31T19:58:27.373Z,101310.34
2018-08-31T20:03:25.527Z,101314.19
2018-08-31T20:08:23.495Z,101313.09
2018-08-31T20:13:21.651Z,101323.81
2018-08-31T20:18:19.821Z,101325.43
2018-08-31T20:23:18.403Z,101319.31
2018-08-31T20:28:16.559Z,101321.23
2018-08-31T20:33:14.381Z,101325.92
2018-08-31T20:38:11.822Z,101336.33
2018-08-31T20:43:09.484Z,101337.65
2018-08-31T20:48:08.031Z,101338.14
2018-08-31T20:53:05.583Z,101338.14
2018-08-31T20:58:03.192Z,101342.44
2018-08-31T21:03:00.583Z,101345.17
2018-08-31T21:07:57.999Z,101344.77
2018-08-31T21:12:56.019Z,101353.03
2018-08-31T21:17:53.830Z,101351.70
2018-08-31T21:22:51.711Z,101348.35
2018-08-31T21:27:49.606Z,101349.78
2018-08-31T21:32:47.022Z,101355.87
2018-08-31T21:37:44.435Z,101358.75
2018-08-31T21:42:42.314Z,101356.90
2018-08-31T21:47:39.751Z,101358.55
2018-08-31T21:52:37.260Z,101361.71
2018-08-31T21:57:34.689Z,101365.37
2018-08-31T22:02:32.095Z,101366.11
2018-08-31T22:07:29.512Z,101370.57
2018-08-31T22:12:26.930Z,101362.52
2018-08-31T22:17:24.792Z,101370.36
2018-08-31T22:22:22.186Z,101367.50
2018-08-31T22:27:19.583Z,101369.15
2018-08-31T22:32:16.968Z,101362.83
2018-08-31T22:37:14.479Z,101369.33
2018-08-31T22:42:11.871Z,101369.53
2018-08-31T22:47:09.263Z,101366.18
2018-08-31T22:52:06.780Z,101368.63
2018-08-31T22:57:04.149Z,101363.53
2018-08-31T23:02:01.551Z,101365.37
2018-08-31T23:06:58.978Z,101367.72
2018-08-31T23:11:56.391Z,101363.74
2018-08-31T23:16:53.813Z,101363.92
2018-08-31T23:21:51.210Z,101367.52
2018-08-31T23:26:48.622Z,101371.59
2018-08-31T23:31:46.015Z,101376.47
2018-08-31T23:36:43.448Z,101378.60
2018-08-31T23:41:40.846Z,101379.85
2018-08-31T23:46:38.254Z,101381.17
2018-08-31T23:51:35.664Z,101384.02
2018-08-31T23:56:33.059Z,101378.41
